Time;durP1;ratioP1;P1;durP2;ratioP2;P2;SDS_P1;SDS_P2;PMS_P1;PMS_P2;Temp;Humidity;BMP_temperature;BMP_pressure;BME280_temperature;BME280_humidity;BME280_pressure;Samples;Min_cycle;Max_cycle;Signal;HPM_P1;HPM_P2
2022/04/22 00:00:07;;;;;;;10.60;6.13;;;;;;;;;;5054453;28;20261;-66
2022/04/22 00:02:33;;;;;;;6.73;5.97;;;;;;;;;;5054380;28;20240;-68
2022/04/22 00:04:59;;;;;;;9.50;6.03;;;;;;;;;;5054355;28;20179;-67
2022/04/22 00:07:27;;;;;;;8.57;5.93;;;;;;;;;;5036904;28;20184;-65
2022/04/22 00:09:53;;;;;;;7.17;5.90;;;;;;;;;;5054576;28;20178;-66
2022/04/22 00:12:18;;;;;;;7.53;5.70;;;;;;;;;;5054540;28;20200;-68
2022/04/22 00:14:44;;;;;;;9.93;6.00;;;;;;;;;;5054279;28;20194;-66
2022/04/22 00:17:10;;;;;;;9.50;6.13;;;;;;;;;;5054224;28;20182;-66
2022/04/22 00:19:36;;;;;;;6.80;5.43;;;;;;;;;;5036291;28;20202;-66
2022/04/22 00:22:02;;;;;;;6.70;5.97;;;;;;;;;;5036095;28;20216;-66
2022/04/22 00:24:28;;;;;;;7.28;5.80;;;;;;;;;;5053250;28;20396;-66
2022/04/22 00:26:55;;;;;;;7.40;5.50;;;;;;;;;;5053985;28;20174;-66
2022/04/22 00:29:21;;;;;;;7.43;5.70;;;;;;;;;;5035978;28;20189;-66
2022/04/22 00:31:47;;;;;;;10.10;5.87;;;;;;;;;;5053970;28;20178;-66
2022/04/22 00:34:13;;;;;;;9.87;6.70;;;;;;;;;;5054259;28;20240;-66
2022/04/22 00:36:39;;;;;;;6.87;5.70;;;;;;;;;;5053789;28;20175;-66
2022/04/22 00:39:05;;;;;;;7.63;5.90;;;;;;;;;;5054137;28;20531;-66
2022/04/22 00:41:32;;;;;;;10.27;5.77;;;;;;;;;;5035785;28;20198;-67
2022/04/22 00:43:57;;;;;;;9.20;5.93;;;;;;;;;;5035670;28;20198;-66
2022/04/22 00:46:23;;;;;;;9.23;5.90;;;;;;;;;;5053576;28;20178;-66
2022/04/22 00:48:49;;;;;;;8.83;6.33;;;;;;;;;;5035942;28;20236;-66
2022/04/22 00:51:16;;;;;;;9.07;6.20;;;;;;;;;;5035679;28;20201;-66
2022/04/22 00:53:45;;;;;;;7.63;5.37;;;;;;;;;;5035540;28;20210;-67
2022/04/22 00:56:11;;;;;;;7.50;5.33;;;;;;;;;;5035636;28;20179;-66
2022/04/22 00:58:39;;;;;;;8.63;6.27;;;;;;;;;;5053402;28;20205;-64
2022/04/22 01:01:05;;;;;;;7.93;5.60;;;;;;;;;;5035779;28;20563;-66
2022/04/22 01:03:31;;;;;;;7.17;5.83;;;;;;;;;;5035526;28;20205;-66
2022/04/22 01:11:31;;;;;;;6.23;5.63;;;;;;;;;;5053646;28;20232;-66
2022/04/22 01:13:57;;;;;;;9.10;6.13;;;;;;;;;;5053699;28;20236;-66
2022/04/22 01:16:23;;;;;;;7.43;5.57;;;;;;;;;;5035372;28;20190;-66
2022/04/22 01:18:49;;;;;;;7.63;5.90;;;;;;;;;;5035271;28;20218;-66
2022/04/22 01:21:15;;;;;;;9.67;6.07;;;;;;;;;;5037315;28;20184;-66
2022/04/22 01:23:41;;;;;;;11.10;5.90;;;;;;;;;;5055725;28;20194;-66
2022/04/22 01:26:08;;;;;;;8.60;6.37;;;;;;;;;;5038034;28;20185;-66
2022/04/22 01:28:34;;;;;;;10.67;7.03;;;;;;;;;;5055719;28;20236;-66
2022/04/22 01:31:00;;;;;;;9.27;5.83;;;;;;;;;;5041749;28;20178;-66
2022/04/22 01:33:26;;;;;;;7.97;5.97;;;;;;;;;;5059249;28;20208;-67
2022/04/22 01:35:52;;;;;;;6.93;6.13;;;;;;;;;;5040477;28;20178;-68
2022/04/22 01:38:18;;;;;;;8.93;6.53;;;;;;;;;;5039922;28;20198;-67
2022/04/22 01:40:44;;;;;;;8.27;6.67;;;;;;;;;;5039259;28;20182;-67
2022/04/22 01:43:10;;;;;;;8.50;6.73;;;;;;;;;;5039147;28;20203;-68
2022/04/22 01:45:36;;;;;;;9.90;5.93;;;;;;;;;;5039093;28;20269;-67
2022/04/22 01:48:02;;;;;;;7.57;6.67;;;;;;;;;;5039229;28;20184;-67
2022/04/22 01:50:28;;;;;;;10.70;7.07;;;;;;;;;;5038930;28;20187;-67
2022/04/22 01:52:54;;;;;;;8.87;7.23;;;;;;;;;;5056554;28;20210;-68
2022/04/22 01:55:20;;;;;;;12.63;7.20;;;;;;;;;;5039037;28;20273;-68
2022/04/22 01:57:46;;;;;;;8.17;7.00;;;;;;;;;;5038855;28;20634;-68
2022/04/22 02:00:12;;;;;;;10.50;7.50;;;;;;;;;;5038719;28;20318;-67
2022/04/22 02:02:38;;;;;;;9.17;7.67;;;;;;;;;;5038595;28;20575;-67
2022/04/22 02:05:06;;;;;;;11.23;9.00;;;;;;;;;;5038985;28;20178;-67
2022/04/22 02:07:32;;;;;;;11.13;7.67;;;;;;;;;;5056618;28;20175;-67
2022/04/22 02:09:58;;;;;;;12.37;9.50;;;;;;;;;;5056956;28;20261;-68
2022/04/22 02:12:24;;;;;;;11.00;8.87;;;;;;;;;;5038585;28;20662;-67
2022/04/22 02:14:50;;;;;;;13.33;9.07;;;;;;;;;;5056759;28;20186;-67
2022/04/22 02:17:16;;;;;;;10.03;8.20;;;;;;;;;;5038439;28;20186;-68
2022/04/22 02:19:42;;;;;;;9.57;6.90;;;;;;;;;;5056863;28;20194;-67
2022/04/22 02:22:08;;;;;;;16.83;12.93;;;;;;;;;;5038369;28;20220;-67
2022/04/22 02:24:34;;;;;;;10.40;7.27;;;;;;;;;;5056330;28;20206;-67
2022/04/22 02:29:44;;;;;;;9.40;6.80;;;;;;;;;;5056221;28;20556;-67
2022/04/22 02:32:10;;;;;;;9.60;7.47;;;;;;;;;;5038207;28;20564;-68
2022/04/22 02:34:36;;;;;;;10.43;8.33;;;;;;;;;;5055979;28;20261;-68
2022/04/22 02:37:02;;;;;;;13.20;8.87;;;;;;;;;;5056475;28;20609;-67
2022/04/22 02:39:28;;;;;;;8.37;6.80;;;;;;;;;;5037612;28;20552;-67
2022/04/22 02:47:40;;;;;;;11.23;8.17;;;;;;;;;;4994520;28;20246;-67
2022/04/22 02:50:06;;;;;;;9.90;7.47;;;;;;;;;;5043420;28;20564;-67
2022/04/22 02:52:32;;;;;;;13.63;8.53;;;;;;;;;;5037499;28;20214;-67
2022/04/22 02:54:58;;;;;;;14.63;10.60;;;;;;;;;;5056054;28;20179;-67
2022/04/22 02:57:24;;;;;;;15.03;10.13;;;;;;;;;;5056066;28;20171;-67
2022/04/22 02:59:50;;;;;;;14.20;10.07;;;;;;;;;;5038472;28;20293;-67
2022/04/22 03:02:16;;;;;;;14.40;9.70;;;;;;;;;;5038115;28;20229;-67
2022/04/22 03:04:42;;;;;;;11.67;7.80;;;;;;;;;;5038434;28;20704;-67
2022/04/22 03:07:08;;;;;;;12.23;8.13;;;;;;;;;;5056563;28;20171;-67
2022/04/22 03:09:34;;;;;;;13.73;8.83;;;;;;;;;;5055917;28;20236;-67
2022/04/22 03:12:00;;;;;;;14.03;9.13;;;;;;;;;;5055581;28;20229;-68
2022/04/22 03:14:26;;;;;;;15.70;10.30;;;;;;;;;;5037485;28;20178;-68
2022/04/22 03:16:52;;;;;;;11.67;8.70;;;;;;;;;;5055288;28;20181;-68
2022/04/22 03:19:18;;;;;;;12.23;8.37;;;;;;;;;;5055334;28;20636;-67
2022/04/22 03:21:44;;;;;;;13.43;8.27;;;;;;;;;;5055240;28;20554;-68
2022/04/22 03:24:11;;;;;;;13.13;8.87;;;;;;;;;;5037173;28;20264;-68
2022/04/22 03:26:37;;;;;;;13.33;8.60;;;;;;;;;;5037280;28;20178;-68
2022/04/22 03:29:03;;;;;;;10.53;8.30;;;;;;;;;;5037140;28;20240;-67
2022/04/22 03:31:29;;;;;;;12.47;9.07;;;;;;;;;;5054937;28;20174;-68
2022/04/22 03:33:55;;;;;;;10.10;8.07;;;;;;;;;;5054803;28;20198;-67
2022/04/22 03:36:21;;;;;;;14.43;8.80;;;;;;;;;;5054887;28;20692;-67
2022/04/22 03:38:47;;;;;;;14.43;8.90;;;;;;;;;;5036858;28;20609;-67
2022/04/22 03:41:13;;;;;;;11.63;8.70;;;;;;;;;;5054764;28;20182;-67
2022/04/22 03:43:39;;;;;;;13.03;7.63;;;;;;;;;;5036880;28;20202;-67
2022/04/22 03:46:05;;;;;;;14.57;9.03;;;;;;;;;;5054930;28;20166;-67
2022/04/22 03:48:31;;;;;;;12.10;9.70;;;;;;;;;;5054638;28;20558;-67
2022/04/22 03:50:58;;;;;;;11.43;9.13;;;;;;;;;;5054287;28;20554;-67
2022/04/22 03:53:24;;;;;;;11.50;9.13;;;;;;;;;;5036517;28;20344;-67
2022/04/22 03:55:50;;;;;;;12.60;9.17;;;;;;;;;;5055048;28;20585;-67
2022/04/22 03:58:17;;;;;;;13.57;9.50;;;;;;;;;;5054428;28;20198;-67
2022/04/22 04:00:48;;;;;;;14.17;9.80;;;;;;;;;;5036554;28;20183;-67
2022/04/22 04:03:26;;;;;;;12.40;9.03;;;;;;;;;;5054456;28;20198;-68
2022/04/22 04:05:52;;;;;;;13.90;10.30;;;;;;;;;;5054638;28;20170;-67
2022/04/22 04:08:20;;;;;;;13.47;8.80;;;;;;;;;;5054484;28;20178;-67
2022/04/22 04:15:57;;;;;;;13.83;9.40;;;;;;;;;;5054674;28;20256;-67
2022/04/22 04:16:30;;;;;;;16.90;10.10;;;;;;;;;;5053753;28;20191;-67
2022/04/22 04:23:14;;;;;;;16.67;10.90;;;;;;;;;;5054556;28;20309;-67
2022/04/22 04:24:26;;;;;;;13.37;10.73;;;;;;;;;;5054483;28;20194;-67
2022/04/22 04:26:53;;;;;;;13.53;9.93;;;;;;;;;;5054156;28;20178;-67
2022/04/22 04:29:19;;;;;;;17.67;11.33;;;;;;;;;;5036248;28;20185;-67
2022/04/22 04:31:47;;;;;;;18.07;10.97;;;;;;;;;;5036308;28;20178;-67
2022/04/22 04:34:13;;;;;;;14.27;10.97;;;;;;;;;;5036334;28;20226;-67
2022/04/22 04:36:39;;;;;;;16.83;11.07;;;;;;;;;;5054666;28;20182;-67
2022/04/22 04:39:05;;;;;;;15.37;10.70;;;;;;;;;;5036150;28;20202;-67
2022/04/22 04:41:31;;;;;;;16.60;11.80;;;;;;;;;;5054080;28;20202;-67
2022/04/22 04:43:57;;;;;;;18.50;12.50;;;;;;;;;;5035602;28;20213;-67
2022/04/22 04:46:23;;;;;;;18.77;12.73;;;;;;;;;;5053626;28;20177;-67
2022/04/22 04:48:48;;;;;;;19.73;13.07;;;;;;;;;;5053756;28;20178;-67
2022/04/22 04:51:14;;;;;;;17.77;13.73;;;;;;;;;;5053911;28;20214;-67
2022/04/22 04:53:40;;;;;;;23.93;15.53;;;;;;;;;;5053414;28;20218;-67
2022/04/22 04:56:06;;;;;;;18.03;13.70;;;;;;;;;;5053939;28;20182;-67
2022/04/22 04:58:32;;;;;;;21.27;14.07;;;;;;;;;;5053533;28;20202;-67
2022/04/22 05:00:58;;;;;;;19.57;13.50;;;;;;;;;;5035873;28;20185;-67
2022/04/22 05:03:24;;;;;;;21.20;14.30;;;;;;;;;;5052970;28;20198;-66
2022/04/22 05:05:51;;;;;;;19.03;13.27;;;;;;;;;;5035495;28;20183;-67
2022/04/22 05:08:17;;;;;;;18.77;14.43;;;;;;;;;;5035784;28;20179;-67
2022/04/22 05:10:43;;;;;;;22.37;14.20;;;;;;;;;;5053430;28;20524;-68
2022/04/22 05:13:09;;;;;;;21.23;15.20;;;;;;;;;;5053451;28;20197;-67
2022/04/22 05:15:35;;;;;;;21.33;13.40;;;;;;;;;;5035842;28;20268;-67
2022/04/22 05:18:02;;;;;;;20.13;14.43;;;;;;;;;;5035351;28;20182;-67
2022/04/22 05:20:28;;;;;;;17.03;12.57;;;;;;;;;;5053684;28;20265;-69
2022/04/22 05:22:55;;;;;;;20.87;15.27;;;;;;;;;;5053391;28;20585;-67
2022/04/22 05:25:21;;;;;;;21.27;15.33;;;;;;;;;;5053274;28;20181;-67
2022/04/22 05:27:48;;;;;;;22.17;15.23;;;;;;;;;;5053565;28;20213;-67
2022/04/22 05:33:03;;;;;;;22.90;15.07;;;;;;;;;;5053501;28;20703;-69
2022/04/22 05:35:29;;;;;;;16.70;12.57;;;;;;;;;;5036270;28;20282;-67
2022/04/22 05:38:05;;;;;;;19.57;14.27;;;;;;;;;;5053458;28;20175;-67
2022/04/22 05:40:36;;;;;;;24.60;15.20;;;;;;;;;;5053288;28;20158;-67
2022/04/22 05:43:02;;;;;;;19.50;12.80;;;;;;;;;;5053110;28;20186;-67
2022/04/22 05:45:28;;;;;;;19.03;13.47;;;;;;;;;;5053301;28;20177;-67
2022/04/22 05:47:56;;;;;;;21.80;13.80;;;;;;;;;;5035423;28;20174;-67
2022/04/22 05:50:23;;;;;;;17.10;11.97;;;;;;;;;;5053333;28;20231;-67
2022/04/22 05:52:49;;;;;;;18.83;12.77;;;;;;;;;;5035033;28;20222;-67
2022/04/22 05:55:16;;;;;;;19.27;13.20;;;;;;;;;;5053199;28;20179;-67
2022/04/22 05:57:43;;;;;;;17.97;12.47;;;;;;;;;;5053338;28;20174;-67
2022/04/22 06:00:11;;;;;;;22.37;13.70;;;;;;;;;;5035201;28;20823;-67
2022/04/22 06:02:37;;;;;;;14.03;10.47;;;;;;;;;;5052849;28;20240;-67
2022/04/22 06:05:03;;;;;;;20.47;12.80;;;;;;;;;;5053025;28;20175;-67
2022/04/22 06:07:29;;;;;;;21.37;14.20;;;;;;;;;;5035170;28;20205;-67
2022/04/22 06:12:39;;;;;;;19.03;13.47;;;;;;;;;;5052979;28;20638;-67
2022/04/22 06:15:05;;;;;;;20.73;13.30;;;;;;;;;;5036444;28;20179;-67
2022/04/22 06:17:32;;;;;;;20.97;14.17;;;;;;;;;;5038636;28;20209;-67
2022/04/22 06:19:58;;;;;;;23.03;14.47;;;;;;;;;;5056391;22;20223;-66
2022/04/22 06:22:26;;;;;;;15.90;11.43;;;;;;;;;;5018728;28;20186;-66
2022/04/22 06:24:52;;;;;;;19.50;13.30;;;;;;;;;;5036512;28;20198;-68
2022/04/22 06:27:25;;;;;;;18.80;13.13;;;;;;;;;;5036270;28;20229;-67
2022/04/22 06:29:52;;;;;;;17.60;13.00;;;;;;;;;;5018408;28;20209;-67
2022/04/22 06:32:18;;;;;;;18.70;13.47;;;;;;;;;;5036090;28;20207;-66
2022/04/22 06:34:44;;;;;;;18.90;14.13;;;;;;;;;;5018278;28;20183;-68
2022/04/22 06:37:11;;;;;;;14.67;10.90;;;;;;;;;;5019029;28;20183;-67
2022/04/22 06:45:46;;;;;;;17.13;13.43;;;;;;;;;;5035733;28;20499;-66
2022/04/22 06:47:53;;;;;;;19.47;12.63;;;;;;;;;;5036307;28;20198;-67
2022/04/22 06:50:19;;;;;;;16.57;12.20;;;;;;;;;;5035847;28;20202;-67
2022/04/22 06:52:48;;;;;;;18.23;13.23;;;;;;;;;;5035852;28;20659;-67
2022/04/22 06:55:14;;;;;;;15.90;11.20;;;;;;;;;;5018027;28;20182;-66
2022/04/22 06:57:41;;;;;;;15.83;11.53;;;;;;;;;;5018092;28;20244;-67
2022/04/22 07:00:10;;;;;;;13.67;10.43;;;;;;;;;;5035589;28;20226;-67
2022/04/22 07:02:36;;;;;;;16.77;12.20;;;;;;;;;;5035685;28;20550;-66
2022/04/22 07:05:03;;;;;;;19.30;12.33;;;;;;;;;;5035943;28;20179;-68
2022/04/22 07:07:29;;;;;;;19.00;12.13;;;;;;;;;;5036090;28;20230;-66
2022/04/22 07:09:55;;;;;;;19.00;12.40;;;;;;;;;;5035573;28;20274;-68
2022/04/22 07:12:23;;;;;;;16.20;11.17;;;;;;;;;;5035828;28;20187;-67
2022/04/22 07:14:50;;;;;;;14.80;11.60;;;;;;;;;;5035501;28;20179;-66
2022/04/22 07:17:16;;;;;;;18.43;12.30;;;;;;;;;;5017545;28;20674;-65
2022/04/22 07:19:42;;;;;;;14.90;10.80;;;;;;;;;;5017349;28;20219;-65
2022/04/22 07:22:08;;;;;;;15.17;11.30;;;;;;;;;;5035559;28;20213;-65
2022/04/22 07:24:35;;;;;;;12.40;10.27;;;;;;;;;;5035395;28;20179;-65
2022/04/22 07:27:02;;;;;;;13.17;10.23;;;;;;;;;;5035070;28;20175;-64
2022/04/22 07:29:30;;;;;;;12.80;9.97;;;;;;;;;;5035217;28;20202;-64
2022/04/22 07:31:56;;;;;;;11.23;9.17;;;;;;;;;;5035651;28;20175;-67
2022/04/22 07:34:22;;;;;;;12.87;9.73;;;;;;;;;;5035533;28;20309;-67
2022/04/22 07:36:48;;;;;;;12.07;9.80;;;;;;;;;;5035255;28;20230;-68
2022/04/22 07:39:14;;;;;;;13.40;8.63;;;;;;;;;;5034933;28;20235;-67
2022/04/22 07:41:40;;;;;;;11.50;9.57;;;;;;;;;;5017033;28;20175;-67
2022/04/22 07:46:58;;;;;;;10.93;7.67;;;;;;;;;;5035059;28;20174;-67
2022/04/22 07:49:26;;;;;;;10.93;9.53;;;;;;;;;;5017139;28;20179;-66
2022/04/22 07:51:52;;;;;;;12.37;9.63;;;;;;;;;;5017099;28;20183;-65
2022/04/22 07:54:18;;;;;;;11.50;9.37;;;;;;;;;;5035150;28;20223;-67
2022/04/22 07:56:44;;;;;;;13.13;10.27;;;;;;;;;;5034885;28;20179;-67
2022/04/22 07:59:10;;;;;;;14.77;11.07;;;;;;;;;;5016912;28;20313;-66
2022/04/22 08:01:36;;;;;;;12.20;10.30;;;;;;;;;;5034793;28;20175;-66
2022/04/22 08:04:03;;;;;;;13.07;10.67;;;;;;;;;;5016859;28;20639;-68
2022/04/22 08:06:29;;;;;;;14.97;11.53;;;;;;;;;;5034566;28;20231;-68
2022/04/22 08:08:55;;;;;;;8.27;7.17;;;;;;;;;;5034784;28;20179;-67
2022/04/22 08:11:21;;;;;;;12.80;10.80;;;;;;;;;;5016513;28;20237;-67
2022/04/22 08:13:47;;;;;;;14.10;11.47;;;;;;;;;;5034277;28;20185;-65
2022/04/22 08:16:13;;;;;;;11.40;9.70;;;;;;;;;;5016483;28;20278;-66
2022/04/22 08:18:40;;;;;;;10.40;8.20;;;;;;;;;;5034206;28;20655;-65
2022/04/22 08:21:08;;;;;;;10.20;8.50;;;;;;;;;;5034109;28;20206;-67
2022/04/22 08:23:34;;;;;;;9.77;8.27;;;;;;;;;;5016528;28;20179;-67
2022/04/22 08:26:00;;;;;;;12.40;8.57;;;;;;;;;;5016389;28;20179;-67
2022/04/22 08:28:27;;;;;;;6.03;5.07;;;;;;;;;;5016406;28;20769;-67
2022/04/22 08:30:53;;;;;;;12.10;8.27;;;;;;;;;;5033896;28;20250;-68
2022/04/22 08:33:19;;;;;;;10.97;8.50;;;;;;;;;;5034503;28;20546;-65
2022/04/22 08:35:45;;;;;;;14.17;7.87;;;;;;;;;;5034016;28;20229;-65
2022/04/22 08:38:11;;;;;;;10.93;6.97;;;;;;;;;;5034653;28;20183;-66
2022/04/22 08:40:37;;;;;;;11.87;7.93;;;;;;;;;;5033912;28;20223;-65
2022/04/22 08:43:04;;;;;;;11.33;8.27;;;;;;;;;;5016150;28;20185;-65
2022/04/22 08:45:30;;;;;;;9.90;7.43;;;;;;;;;;5016251;28;20266;-65
2022/04/22 08:50:45;;;;;;;8.87;7.23;;;;;;;;;;5034043;28;20213;-66
2022/04/22 08:53:12;;;;;;;7.43;6.60;;;;;;;;;;5034076;28;20179;-67
2022/04/22 08:55:39;;;;;;;9.90;8.43;;;;;;;;;;5034165;28;20261;-66
2022/04/22 08:58:06;;;;;;;8.20;6.90;;;;;;;;;;5033744;28;20183;-66
2022/04/22 09:00:36;;;;;;;7.23;6.20;;;;;;;;;;5033761;28;20710;-65
2022/04/22 09:03:02;;;;;;;8.30;6.37;;;;;;;;;;5034050;28;20214;-66
2022/04/22 09:05:29;;;;;;;6.20;4.63;;;;;;;;;;5034192;28;20171;-66
2022/04/22 09:07:56;;;;;;;9.73;6.87;;;;;;;;;;5015634;28;20225;-66
2022/04/22 09:10:22;;;;;;;8.83;6.93;;;;;;;;;;5033512;28;20267;-68
2022/04/22 09:12:52;;;;;;;10.83;6.40;;;;;;;;;;5033288;28;20268;-66
2022/04/22 09:15:19;;;;;;;6.77;5.90;;;;;;;;;;5033387;28;20184;-66
2022/04/22 09:17:44;;;;;;;7.93;6.70;;;;;;;;;;5033339;28;20265;-67
2022/04/22 09:20:13;;;;;;;6.67;5.90;;;;;;;;;;5015210;28;20314;-67
2022/04/22 09:22:39;;;;;;;8.40;6.47;;;;;;;;;;5033440;28;20257;-67
2022/04/22 09:25:05;;;;;;;8.20;5.70;;;;;;;;;;5033068;28;20179;-65
2022/04/22 09:27:41;;;;;;;7.83;5.67;;;;;;;;;;5033216;28;20172;-65
2022/04/22 09:30:09;;;;;;;8.27;6.73;;;;;;;;;;5033039;28;20671;-67
2022/04/22 09:32:37;;;;;;;8.43;6.60;;;;;;;;;;5015260;28;20245;-66
2022/04/22 09:35:15;;;;;;;6.53;5.90;;;;;;;;;;5033470;28;20179;-66
2022/04/22 09:43:36;;;;;;;11.07;7.50;;;;;;;;;;5033070;28;20171;-66
2022/04/22 09:46:02;;;;;;;10.90;8.17;;;;;;;;;;5015309;28;20183;-66
2022/04/22 09:48:39;;;;;;;9.03;7.30;;;;;;;;;;5032960;28;20230;-64
2022/04/22 09:51:18;;;;;;;7.67;6.47;;;;;;;;;;5036634;28;20671;-67
2022/04/22 09:53:44;;;;;;;10.57;7.97;;;;;;;;;;5019120;28;20221;-66
2022/04/22 09:56:10;;;;;;;8.93;7.27;;;;;;;;;;5019220;28;20182;-65
2022/04/22 09:58:37;;;;;;;11.43;8.87;;;;;;;;;;5036956;28;20203;-65
2022/04/22 10:01:05;;;;;;;10.03;7.30;;;;;;;;;;5036664;28;20195;-65
2022/04/22 10:03:32;;;;;;;8.90;7.97;;;;;;;;;;5036838;28;20729;-66
2022/04/22 10:05:59;;;;;;;10.23;8.17;;;;;;;;;;5036721;28;20548;-65
2022/04/22 10:08:28;;;;;;;14.03;8.90;;;;;;;;;;5036522;28;20233;-66
2022/04/22 10:10:55;;;;;;;8.57;7.23;;;;;;;;;;5036905;28;20195;-65
2022/04/22 10:13:22;;;;;;;7.23;6.13;;;;;;;;;;5036783;28;20179;-66
2022/04/22 10:15:49;;;;;;;11.67;8.27;;;;;;;;;;5018583;28;20654;-66
2022/04/22 10:18:16;;;;;;;9.83;8.47;;;;;;;;;;5036557;28;20654;-66
2022/04/22 10:20:46;;;;;;;9.67;8.00;;;;;;;;;;5018426;28;20222;-66
2022/04/22 10:23:12;;;;;;;9.77;8.33;;;;;;;;;;5036649;28;20156;-66
2022/04/22 10:25:39;;;;;;;9.07;7.37;;;;;;;;;;5018649;28;20199;-66
2022/04/22 10:28:06;;;;;;;9.40;7.10;;;;;;;;;;5036580;28;20217;-66
2022/04/22 10:30:32;;;;;;;9.97;7.43;;;;;;;;;;5036542;28;20199;-66
2022/04/22 10:32:59;;;;;;;7.80;6.60;;;;;;;;;;5018498;28;20183;-66
2022/04/22 10:35:25;;;;;;;6.00;5.27;;;;;;;;;;5036093;28;20278;-66
2022/04/22 10:37:52;;;;;;;13.13;6.57;;;;;;;;;;5036062;28;20557;-68
2022/04/22 10:40:18;;;;;;;8.40;6.27;;;;;;;;;;5035854;28;20214;-66
2022/04/22 10:42:44;;;;;;;7.63;6.30;;;;;;;;;;5018203;28;20186;-66
2022/04/22 10:47:58;;;;;;;5.57;4.47;;;;;;;;;;5036211;28;20178;-66
2022/04/22 10:50:24;;;;;;;6.10;3.83;;;;;;;;;;5018167;28;20218;-66
2022/04/22 10:53:03;;;;;;;5.27;4.57;;;;;;;;;;5036103;28;20217;-67
2022/04/22 10:55:49;;;;;;;5.83;4.00;;;;;;;;;;5036197;28;20206;-66
2022/04/22 10:58:23;;;;;;;6.93;5.30;;;;;;;;;;5035981;28;20187;-67
2022/04/22 11:00:50;;;;;;;5.93;4.70;;;;;;;;;;5035704;28;20203;-67
2022/04/22 11:03:16;;;;;;;4.93;4.43;;;;;;;;;;5017746;28;20179;-65
2022/04/22 11:05:47;;;;;;;5.43;4.30;;;;;;;;;;5036067;28;20179;-65
2022/04/22 11:08:17;;;;;;;6.53;4.90;;;;;;;;;;5035993;28;20179;-67
2022/04/22 11:10:46;;;;;;;6.87;4.70;;;;;;;;;;5035651;28;20202;-66
2022/04/22 11:13:30;;;;;;;6.60;5.30;;;;;;;;;;5035521;28;20222;-66
2022/04/22 11:16:06;;;;;;;6.80;5.30;;;;;;;;;;5035835;28;20189;-66
2022/04/22 11:18:33;;;;;;;8.43;5.13;;;;;;;;;;5035128;28;20271;-66
2022/04/22 11:21:10;;;;;;;6.10;4.80;;;;;;;;;;5035101;28;20678;-66
2022/04/22 11:23:38;;;;;;;5.80;4.17;;;;;;;;;;5017618;28;20173;-66
2022/04/22 11:26:04;;;;;;;6.97;5.23;;;;;;;;;;5035724;28;20229;-65
2022/04/22 11:28:37;;;;;;;7.37;4.63;;;;;;;;;;5017270;28;20241;-65
2022/04/22 11:31:05;;;;;;;5.20;4.70;;;;;;;;;;5034945;28;20195;-66
2022/04/22 11:33:44;;;;;;;6.43;5.23;;;;;;;;;;5034890;28;20182;-66
2022/04/22 11:36:10;;;;;;;7.07;6.23;;;;;;;;;;5034984;28;20186;-66
2022/04/22 11:38:44;;;;;;;4.50;4.07;;;;;;;;;;5034868;28;20260;-66
2022/04/22 11:41:13;;;;;;;6.53;5.10;;;;;;;;;;5035055;28;20198;-68
2022/04/22 11:43:39;;;;;;;7.33;5.50;;;;;;;;;;5017219;28;20183;-65
2022/04/22 11:46:05;;;;;;;8.17;5.33;;;;;;;;;;5034755;28;20263;-64
2022/04/22 11:48:31;;;;;;;5.83;5.20;;;;;;;;;;5034946;28;20201;-65
2022/04/22 11:51:01;;;;;;;9.57;6.23;;;;;;;;;;5034887;28;20289;-66
2022/04/22 11:53:32;;;;;;;7.57;5.23;;;;;;;;;;5017180;28;20186;-66
2022/04/22 11:55:58;;;;;;;8.33;6.03;;;;;;;;;;5034830;28;20673;-64
2022/04/22 11:58:24;;;;;;;7.93;5.53;;;;;;;;;;5016705;28;20562;-64
2022/04/22 12:06:21;;;;;;;5.27;4.63;;;;;;;;;;5035025;28;20194;-64
2022/04/22 12:08:59;;;;;;;6.87;4.83;;;;;;;;;;5016781;28;20183;-64
2022/04/22 12:11:25;;;;;;;6.07;5.23;;;;;;;;;;5034389;28;20199;-65
2022/04/22 12:13:52;;;;;;;7.77;6.80;;;;;;;;;;5016321;28;20409;-66
2022/04/22 12:16:22;;;;;;;8.40;5.77;;;;;;;;;;5034466;28;20179;-65
2022/04/22 12:18:49;;;;;;;7.57;5.73;;;;;;;;;;5016471;28;20210;-65
2022/04/22 12:21:15;;;;;;;6.90;5.63;;;;;;;;;;5016069;28;20222;-65
2022/04/22 12:23:42;;;;;;;6.80;5.70;;;;;;;;;;5016608;28;20186;-65
2022/04/22 12:26:21;;;;;;;7.33;6.20;;;;;;;;;;5034201;28;20178;-65
2022/04/22 12:29:00;;;;;;;9.40;6.00;;;;;;;;;;5034031;28;20269;-65
2022/04/22 12:31:27;;;;;;;7.37;6.57;;;;;;;;;;5034140;28;20202;-67
2022/04/22 12:34:03;;;;;;;6.90;5.70;;;;;;;;;;5034148;28;20175;-67
2022/04/22 12:36:30;;;;;;;9.90;5.03;;;;;;;;;;5034255;28;20179;-69
2022/04/22 12:38:56;;;;;;;7.27;5.53;;;;;;;;;;5034167;28;20244;-67
2022/04/22 12:41:23;;;;;;;7.40;6.00;;;;;;;;;;5033848;28;20195;-68
2022/04/22 12:43:50;;;;;;;7.03;5.80;;;;;;;;;;5033745;28;20651;-68
2022/04/22 12:52:16;;;;;;;7.60;6.47;;;;;;;;;;5034000;28;20233;-65
2022/04/22 12:54:45;;;;;;;10.60;7.33;;;;;;;;;;5015795;28;20579;-65
2022/04/22 12:57:12;;;;;;;7.37;6.57;;;;;;;;;;5016011;28;20218;-63
2022/04/22 12:59:43;;;;;;;8.70;6.77;;;;;;;;;;5033333;28;20210;-65
2022/04/22 13:02:09;;;;;;;9.57;7.20;;;;;;;;;;5015772;28;20273;-65
2022/04/22 13:04:49;;;;;;;10.23;6.43;;;;;;;;;;5015834;28;20179;-64
2022/04/22 13:07:15;;;;;;;5.20;4.60;;;;;;;;;;5040419;23;20230;-66
2022/04/22 13:09:41;;;;;;;6.40;5.63;;;;;;;;;;5033752;28;20520;-68
2022/04/22 13:12:07;;;;;;;7.37;5.43;;;;;;;;;;5016005;28;20562;-67
2022/04/22 13:14:33;;;;;;;7.03;5.80;;;;;;;;;;5015813;28;20582;-67
2022/04/22 13:17:01;;;;;;;10.27;7.00;;;;;;;;;;5033407;28;20221;-67
2022/04/22 13:19:27;;;;;;;8.57;7.60;;;;;;;;;;5033418;28;20205;-67
2022/04/22 13:21:53;;;;;;;10.90;6.80;;;;;;;;;;5033449;28;20176;-67
2022/04/22 13:24:19;;;;;;;8.83;7.03;;;;;;;;;;5032827;28;20201;-67
2022/04/22 13:26:44;;;;;;;8.77;5.97;;;;;;;;;;5015725;28;20225;-67
2022/04/22 13:29:11;;;;;;;8.90;6.03;;;;;;;;;;5015574;28;20317;-67
2022/04/22 13:31:37;;;;;;;8.03;5.83;;;;;;;;;;5033415;28;20198;-67
2022/04/22 13:34:03;;;;;;;6.33;5.17;;;;;;;;;;5033350;28;20369;-67
2022/04/22 13:36:30;;;;;;;7.53;5.87;;;;;;;;;;5033574;28;20171;-67
2022/04/22 13:38:56;;;;;;;7.70;6.37;;;;;;;;;;5033572;28;20237;-67
2022/04/22 13:41:22;;;;;;;6.70;5.73;;;;;;;;;;5033343;28;20179;-67
2022/04/22 13:43:48;;;;;;;7.67;6.20;;;;;;;;;;5015694;28;20179;-67
2022/04/22 13:54:44;;;;;;;7.73;6.03;;;;;;;;;;5026968;28;20206;-67
2022/04/22 13:57:10;;;;;;;8.33;6.60;;;;;;;;;;5015423;28;20203;-67
2022/04/22 13:59:36;;;;;;;7.53;6.20;;;;;;;;;;5033245;28;20282;-67
2022/04/22 14:02:03;;;;;;;8.33;7.20;;;;;;;;;;5015352;28;20179;-67
2022/04/22 14:04:34;;;;;;;8.30;6.97;;;;;;;;;;5033334;28;20183;-68
2022/04/22 14:07:00;;;;;;;8.40;6.70;;;;;;;;;;5015549;28;20175;-67
2022/04/22 14:09:25;;;;;;;7.47;6.50;;;;;;;;;;5033716;28;20561;-67
2022/04/22 14:11:51;;;;;;;9.10;6.80;;;;;;;;;;5033515;28;20184;-67
2022/04/22 14:14:20;;;;;;;6.20;5.30;;;;;;;;;;5033575;28;20187;-67
2022/04/22 14:16:46;;;;;;;6.57;5.10;;;;;;;;;;5033003;28;20655;-67
2022/04/22 14:19:12;;;;;;;7.87;4.87;;;;;;;;;;5033177;28;20226;-67
2022/04/22 14:21:38;;;;;;;4.57;4.10;;;;;;;;;;5015198;28;20183;-67
2022/04/22 14:24:04;;;;;;;6.07;5.03;;;;;;;;;;5033052;28;20179;-67
2022/04/22 14:26:30;;;;;;;5.87;4.50;;;;;;;;;;5015219;28;20183;-67
2022/04/22 14:28:56;;;;;;;8.93;4.60;;;;;;;;;;5032824;28;20249;-67
2022/04/22 14:31:22;;;;;;;4.40;3.60;;;;;;;;;;5032725;28;20183;-67
2022/04/22 14:33:48;;;;;;;4.63;4.17;;;;;;;;;;5015209;28;20186;-67
2022/04/22 14:36:14;;;;;;;8.60;4.47;;;;;;;;;;5016836;28;20198;-67
2022/04/22 14:38:40;;;;;;;7.60;4.00;;;;;;;;;;5036327;28;20211;-67
2022/04/22 14:41:06;;;;;;;6.50;4.50;;;;;;;;;;5018740;28;20183;-67
2022/04/22 14:43:32;;;;;;;5.93;5.33;;;;;;;;;;5037112;28;20178;-67
2022/04/22 14:45:59;;;;;;;5.87;4.83;;;;;;;;;;5019333;28;20184;-67
2022/04/22 14:48:26;;;;;;;5.63;4.43;;;;;;;;;;5036392;28;20199;-68
2022/04/22 14:50:52;;;;;;;4.80;4.30;;;;;;;;;;5036474;28;20262;-68
2022/04/22 14:53:18;;;;;;;6.57;3.73;;;;;;;;;;5018552;28;20183;-67
2022/04/22 14:55:44;;;;;;;6.23;4.77;;;;;;;;;;5018436;28;20186;-67
2022/04/22 14:58:10;;;;;;;6.13;4.60;;;;;;;;;;5018471;28;20230;-67
2022/04/22 15:00:36;;;;;;;6.17;5.57;;;;;;;;;;5036163;28;20666;-67
2022/04/22 15:03:02;;;;;;;6.13;5.23;;;;;;;;;;5036085;28;20233;-67
2022/04/22 15:05:29;;;;;;;8.43;4.87;;;;;;;;;;5036330;28;20194;-67
2022/04/22 15:07:55;;;;;;;7.30;5.67;;;;;;;;;;5024208;28;20227;-68
2022/04/22 15:10:21;;;;;;;6.73;5.67;;;;;;;;;;5017978;28;20564;-67
2022/04/22 15:12:47;;;;;;;6.43;5.57;;;;;;;;;;5036977;28;20638;-67
2022/04/22 15:15:13;;;;;;;12.73;8.70;;;;;;;;;;5018277;28;20266;-67
2022/04/22 15:25:53;;;;;;;7.60;6.77;;;;;;;;;;5037708;28;20186;-67
2022/04/22 15:28:19;;;;;;;7.87;6.20;;;;;;;;;;5038559;28;20194;-67
2022/04/22 15:31:06;;;;;;;10.73;6.40;;;;;;;;;;5021001;28;20190;-67
2022/04/22 15:33:32;;;;;;;5.60;4.97;;;;;;;;;;5021555;28;20258;-67
2022/04/22 15:36:01;;;;;;;9.43;6.97;;;;;;;;;;5022157;28;20583;-67
2022/04/22 15:38:27;;;;;;;9.27;7.10;;;;;;;;;;5019650;28;20244;-67
2022/04/22 15:40:54;;;;;;;7.57;6.27;;;;;;;;;;5018387;28;20179;-68
2022/04/22 15:43:20;;;;;;;8.40;7.33;;;;;;;;;;5035967;28;20178;-67
2022/04/22 15:45:46;;;;;;;9.20;6.83;;;;;;;;;;5017733;28;20176;-67